sensor_id;sensor_type;location;lat;lon;timestamp;pressure;altitude;pressure_sealevel;temperature
76381;BMP280;65202;52.520;10.528;2022-11-20T00:01:28;100802.50;;;-0.52
76381;BMP280;65202;52.520;10.528;2022-11-20T00:03:57;100792.25;;;-0.38
76381;BMP280;65202;52.520;10.528;2022-11-20T00:06:25;100791.22;;;-0.50
76381;BMP280;65202;52.520;10.528;2022-11-20T00:08:56;100792.00;;;-0.41
76381;BMP280;65202;52.520;10.528;2022-11-20T00:11:26;100786.59;;;-0.37
76381;BMP280;65202;52.520;10.528;2022-11-20T00:13:56;100788.16;;;-0.29
76381;BMP280;65202;52.520;10.528;2022-11-20T00:16:27;100791.00;;;-0.24
76381;BMP280;65202;52.520;10.528;2022-11-20T00:18:57;100779.50;;;-0.34
76381;BMP280;65202;52.520;10.528;2022-11-20T00:21:29;100783.69;;;-0.33
76381;BMP280;65202;52.520;10.528;2022-11-20T00:23:57;100778.91;;;-0.31
76381;BMP280;65202;52.520;10.528;2022-11-20T00:26:26;100782.81;;;-0.33
76381;BMP280;65202;52.520;10.528;2022-11-20T00:28:59;100788.53;;;-0.24
76381;BMP280;65202;52.520;10.528;2022-11-20T00:31:28;100775.38;;;-0.25
76381;BMP280;65202;52.520;10.528;2022-11-20T00:33:56;100783.13;;;-0.20
76381;BMP280;65202;52.520;10.528;2022-11-20T00:36:26;100779.81;;;-0.21
76381;BMP280;65202;52.520;10.528;2022-11-20T00:38:57;100781.75;;;-0.27
76381;BMP280;65202;52.520;10.528;2022-11-20T00:41:27;100778.69;;;-0.24
76381;BMP280;65202;52.520;10.528;2022-11-20T00:43:56;100783.41;;;-0.17
76381;BMP280;65202;52.520;10.528;2022-11-20T00:46:25;100775.88;;;-0.19
76381;BMP280;65202;52.520;10.528;2022-11-20T00:48:54;100781.88;;;-0.25
76381;BMP280;65202;52.520;10.528;2022-11-20T00:51:23;100784.81;;;-0.29
76381;BMP280;65202;52.520;10.528;2022-11-20T00:53:55;100774.19;;;-0.20
76381;BMP280;65202;52.520;10.528;2022-11-20T00:56:24;100772.16;;;-0.24
76381;BMP280;65202;52.520;10.528;2022-11-20T00:58:52;100779.53;;;-0.24
76381;BMP280;65202;52.520;10.528;2022-11-20T01:01:24;100783.22;;;-0.29
76381;BMP280;65202;52.520;10.528;2022-11-20T01:03:55;100779.81;;;-0.21
76381;BMP280;65202;52.520;10.528;2022-11-20T01:06:35;100785.72;;;-0.19
76381;BMP280;65202;52.520;10.528;2022-11-20T01:09:09;100776.84;;;-0.27
76381;BMP280;65202;52.520;10.528;2022-11-20T01:11:41;100777.97;;;-0.23
76381;BMP280;65202;52.520;10.528;2022-11-20T01:14:15;100769.84;;;-0.22
76381;BMP280;65202;52.520;10.528;2022-11-20T01:16:47;100780.66;;;-0.20
76381;BMP280;65202;52.520;10.528;2022-11-20T01:19:21;100780.47;;;-0.13
76381;BMP280;65202;52.520;10.528;2022-11-20T01:21:52;100772.38;;;-0.12
76381;BMP280;65202;52.520;10.528;2022-11-20T01:24:21;100777.91;;;-0.15
76381;BMP280;65202;52.520;10.528;2022-11-20T01:26:50;100769.75;;;-0.14
76381;BMP280;65202;52.520;10.528;2022-11-20T01:29:22;100772.50;;;-0.11
76381;BMP280;65202;52.520;10.528;2022-11-20T01:31:51;100776.41;;;-0.13
76381;BMP280;65202;52.520;10.528;2022-11-20T01:34:20;100769.75;;;-0.14
76381;BMP280;65202;52.520;10.528;2022-11-20T01:36:49;100769.03;;;-0.13
76381;BMP280;65202;52.520;10.528;2022-11-20T01:39:21;100761.41;;;-0.16
76381;BMP280;65202;52.520;10.528;2022-11-20T01:41:52;100754.44;;;-0.02
76381;BMP280;65202;52.520;10.528;2022-11-20T01:44:49;100761.66;;;-0.13
76381;BMP280;65202;52.520;10.528;2022-11-20T01:50:23;100756.00;;;-0.12
76381;BMP280;65202;52.520;10.528;2022-11-20T01:52:58;100750.34;;;-0.11
76381;BMP280;65202;52.520;10.528;2022-11-20T01:55:34;100741.28;;;-0.02
76381;BMP280;65202;52.520;10.528;2022-11-20T01:58:06;100741.28;;;-0.02
76381;BMP280;65202;52.520;10.528;2022-11-20T02:00:34;100745.97;;;0.05
76381;BMP280;65202;52.520;10.528;2022-11-20T02:03:07;100747.44;;;0.03
76381;BMP280;65202;52.520;10.528;2022-11-20T02:08:48;100732.72;;;-0.15
76381;BMP280;65202;52.520;10.528;2022-11-20T02:11:16;100726.34;;;-0.13
76381;BMP280;65202;52.520;10.528;2022-11-20T02:13:44;100724.38;;;-0.17
76381;BMP280;65202;52.520;10.528;2022-11-20T02:18:51;100725.81;;;0.09
76381;BMP280;65202;52.520;10.528;2022-11-20T02:24:14;100722.09;;;0.04
76381;BMP280;65202;52.520;10.528;2022-11-20T02:26:57;100721.34;;;-0.05
76381;BMP280;65202;52.520;10.528;2022-11-20T02:29:31;100718.66;;;0.02
76381;BMP280;65202;52.520;10.528;2022-11-20T02:32:03;100721.84;;;0.01
76381;BMP280;65202;52.520;10.528;2022-11-20T02:34:31;100706.59;;;0.05
76381;BMP280;65202;52.520;10.528;2022-11-20T02:36:58;100711.22;;;-0.08
76381;BMP280;65202;52.520;10.528;2022-11-20T02:39:27;100717.41;;;-0.03
76381;BMP280;65202;52.520;10.528;2022-11-20T02:41:55;100710.41;;;0.01
76381;BMP280;65202;52.520;10.528;2022-11-20T02:44:23;100701.94;;;0.08
76381;BMP280;65202;52.520;10.528;2022-11-20T02:46:51;100701.41;;;0.02
76381;BMP280;65202;52.520;10.528;2022-11-20T02:49:18;100705.59;;;0.03
76381;BMP280;65202;52.520;10.528;2022-11-20T02:51:46;100702.38;;;-0.06
76381;BMP280;65202;52.520;10.528;2022-11-20T02:54:13;100704.44;;;-0.10
76381;BMP280;65202;52.520;10.528;2022-11-20T02:56:40;100702.50;;;-0.04
76381;BMP280;65202;52.520;10.528;2022-11-20T02:59:08;100698.63;;;-0.21
76381;BMP280;65202;52.520;10.528;2022-11-20T03:01:36;100696.75;;;0.05
76381;BMP280;65202;52.520;10.528;2022-11-20T03:04:03;100710.97;;;-0.11
76381;BMP280;65202;52.520;10.528;2022-11-20T03:06:31;100698.41;;;-0.14
76381;BMP280;65202;52.520;10.528;2022-11-20T03:08:58;100703.34;;;-0.04
76381;BMP280;65202;52.520;10.528;2022-11-20T03:11:26;100702.50;;;-0.04
76381;BMP280;65202;52.520;10.528;2022-11-20T03:13:53;100698.19;;;-0.07
76381;BMP280;65202;52.520;10.528;2022-11-20T03:16:22;100701.13;;;-0.11
76381;BMP280;65202;52.520;10.528;2022-11-20T03:18:52;100694.25;;;-0.15
76381;BMP280;65202;52.520;10.528;2022-11-20T03:21:19;100694.00;;;-0.08
76381;BMP280;65202;52.520;10.528;2022-11-20T03:23:47;100694.72;;;-0.09
76381;BMP280;65202;52.520;10.528;2022-11-20T03:26:16;100701.38;;;-0.08
76381;BMP280;65202;52.520;10.528;2022-11-20T03:28:48;100693.16;;;-0.08
76381;BMP280;65202;52.520;10.528;2022-11-20T03:31:19;100688.13;;;0.00
76381;BMP280;65202;52.520;10.528;2022-11-20T03:33:52;100688.59;;;-0.04
76381;BMP280;65202;52.520;10.528;2022-11-20T03:36:20;100684.75;;;-0.10
76381;BMP280;65202;52.520;10.528;2022-11-20T03:38:48;100678.03;;;-0.03
76381;BMP280;65202;52.520;10.528;2022-11-20T03:41:21;100674.59;;;-0.05
76381;BMP280;65202;52.520;10.528;2022-11-20T03:43:58;100678.09;;;-0.11
76381;BMP280;65202;52.520;10.528;2022-11-20T03:46:28;100673.69;;;-0.05
76381;BMP280;65202;52.520;10.528;2022-11-20T03:48:56;100679.47;;;-0.15
76381;BMP280;65202;52.520;10.528;2022-11-20T03:51:29;100676.53;;;-0.11
76381;BMP280;65202;52.520;10.528;2022-11-20T03:54:10;100669.38;;;-0.08
76381;BMP280;65202;52.520;10.528;2022-11-20T03:56:38;100663.13;;;-0.04
76381;BMP280;65202;52.520;10.528;2022-11-20T03:59:06;100669.19;;;-0.01
76381;BMP280;65202;52.520;10.528;2022-11-20T04:01:36;100667.66;;;-0.09
76381;BMP280;65202;52.520;10.528;2022-11-20T04:04:04;100663.75;;;-0.07
76381;BMP280;65202;52.520;10.528;2022-11-20T04:06:37;100664.47;;;-0.08
76381;BMP280;65202;52.520;10.528;2022-11-20T04:09:05;100661.75;;;-0.11
76381;BMP280;65202;52.520;10.528;2022-11-20T04:11:35;100676.03;;;-0.07
76381;BMP280;65202;52.520;10.528;2022-11-20T04:14:05;100670.66;;;0.07
76381;BMP280;65202;52.520;10.528;2022-11-20T04:16:39;100654.88;;;0.05
76381;BMP280;65202;52.520;10.528;2022-11-20T04:19:11;100653.19;;;0.04
76381;BMP280;65202;52.520;10.528;2022-11-20T04:21:41;100657.88;;;0.11
76381;BMP280;65202;52.520;10.528;2022-11-20T04:24:10;100657.66;;;0.18
76381;BMP280;65202;52.520;10.528;2022-11-20T04:26:38;100649.28;;;0.26
76381;BMP280;65202;52.520;10.528;2022-11-20T04:29:06;100645.69;;;0.22
76381;BMP280;65202;52.520;10.528;2022-11-20T04:31:34;100647.69;;;0.26
76381;BMP280;65202;52.520;10.528;2022-11-20T04:34:04;100640.16;;;0.25
76381;BMP280;65202;52.520;10.528;2022-11-20T04:36:33;100641.84;;;-0.04
76381;BMP280;65202;52.520;10.528;2022-11-20T04:39:03;100638.91;;;0.10
76381;BMP280;65202;52.520;10.528;2022-11-20T04:41:35;100649.53;;;0.09
76381;BMP280;65202;52.520;10.528;2022-11-20T04:44:04;100642.16;;;0.19
76381;BMP280;65202;52.520;10.528;2022-11-20T04:46:40;100642.59;;;0.15
76381;BMP280;65202;52.520;10.528;2022-11-20T04:49:10;100644.09;;;0.13
76381;BMP280;65202;52.520;10.528;2022-11-20T04:51:38;100643.63;;;0.27
76381;BMP280;65202;52.520;10.528;2022-11-20T04:54:05;100633.78;;;0.27
76381;BMP280;65202;52.520;10.528;2022-11-20T04:56:32;100635.63;;;0.19
76381;BMP280;65202;52.520;10.528;2022-11-20T04:59:00;100638.91;;;0.10
76381;BMP280;65202;52.520;10.528;2022-11-20T05:01:29;100635.47;;;0.08
76381;BMP280;65202;52.520;10.528;2022-11-20T05:03:56;100637.69;;;0.15
76381;BMP280;65202;52.520;10.528;2022-11-20T05:06:23;100634.13;;;0.11
76381;BMP280;65202;52.520;10.528;2022-11-20T05:08:51;100638.44;;;0.04
76381;BMP280;65202;52.520;10.528;2022-11-20T05:11:20;100638.75;;;-0.02
76381;BMP280;65202;52.520;10.528;2022-11-20T05:13:48;100629.66;;;0.07
76381;BMP280;65202;52.520;10.528;2022-11-20T05:16:22;100627.81;;;-0.05
76381;BMP280;65202;52.520;10.528;2022-11-20T05:18:52;100637.88;;;-0.12
76381;BMP280;65202;52.520;10.528;2022-11-20T05:21:21;100635.22;;;-0.05
76381;BMP280;65202;52.520;10.528;2022-11-20T05:23:49;100635.19;;;0.05
76381;BMP280;65202;52.520;10.528;2022-11-20T05:26:18;100633.03;;;0.08
76381;BMP280;65202;52.520;10.528;2022-11-20T05:28:49;100631.22;;;-0.13
76381;BMP280;65202;52.520;10.528;2022-11-20T05:31:19;100628.25;;;-0.19
76381;BMP280;65202;52.520;10.528;2022-11-20T05:33:55;100623.25;;;-0.10
76381;BMP280;65202;52.520;10.528;2022-11-20T05:36:24;100626.09;;;-0.06
76381;BMP280;65202;52.520;10.528;2022-11-20T05:38:51;100617.59;;;-0.09
76381;BMP280;65202;52.520;10.528;2022-11-20T05:41:24;100614.50;;;-0.17
76381;BMP280;65202;52.520;10.528;2022-11-20T05:43:51;100609.78;;;-0.24
76381;BMP280;65202;52.520;10.528;2022-11-20T05:46:20;100609.59;;;-0.07
76381;BMP280;65202;52.520;10.528;2022-11-20T05:48:55;100610.09;;;-0.11
76381;BMP280;65202;52.520;10.528;2022-11-20T05:51:23;100612.44;;;-0.12
76381;BMP280;65202;52.520;10.528;2022-11-20T05:53:51;100612.09;;;0.03
76381;BMP280;65202;52.520;10.528;2022-11-20T05:56:20;100605.53;;;-0.06
76381;BMP280;65202;52.520;10.528;2022-11-20T05:58:48;100601.50;;;-0.06
76381;BMP280;65202;52.520;10.528;2022-11-20T06:01:22;100611.34;;;-0.06
76381;BMP280;65202;52.520;10.528;2022-11-20T06:03:52;100608.16;;;-0.05
76381;BMP280;65202;52.520;10.528;2022-11-20T06:06:20;100607.47;;;-0.22
76381;BMP280;65202;52.520;10.528;2022-11-20T06:08:49;100618.94;;;-0.13
76381;BMP280;65202;52.520;10.528;2022-11-20T06:11:16;100607.72;;;-0.19
76381;BMP280;65202;52.520;10.528;2022-11-20T06:13:45;100596.44;;;-0.17
76381;BMP280;65202;52.520;10.528;2022-11-20T06:16:15;100604.78;;;-0.15
76381;BMP280;65202;52.520;10.528;2022-11-20T06:18:45;100610.75;;;-0.32
76381;BMP280;65202;52.520;10.528;2022-11-20T06:21:15;100611.06;;;-0.09
76381;BMP280;65202;52.520;10.528;2022-11-20T06:23:45;100607.25;;;-0.15
76381;BMP280;65202;52.520;10.528;2022-11-20T06:26:17;100612.66;;;-0.19
76381;BMP280;65202;52.520;10.528;2022-11-20T06:28:49;100610.81;;;-0.12
76381;BMP280;65202;52.520;10.528;2022-11-20T06:31:19;100616.22;;;-0.16
76381;BMP280;65202;52.520;10.528;2022-11-20T06:33:48;100617.47;;;-0.11
76381;BMP280;65202;52.520;10.528;2022-11-20T06:36:18;100614.53;;;-0.07
76381;BMP280;65202;52.520;10.528;2022-11-20T06:38:47;100610.56;;;-0.15
76381;BMP280;65202;52.520;10.528;2022-11-20T06:41:17;100605.03;;;-0.12
76381;BMP280;65202;52.520;10.528;2022-11-20T06:43:46;100603.41;;;-0.22
76381;BMP280;65202;52.520;10.528;2022-11-20T06:46:14;100600.94;;;-0.22
76381;BMP280;65202;52.520;10.528;2022-11-20T06:48:45;100606.13;;;-0.09
76381;BMP280;65202;52.520;10.528;2022-11-20T06:51:13;100608.13;;;-0.15
76381;BMP280;65202;52.520;10.528;2022-11-20T06:53:41;100602.19;;;-0.17
76381;BMP280;65202;52.520;10.528;2022-11-20T06:56:08;100606.13;;;-0.09
76381;BMP280;65202;52.520;10.528;2022-11-20T06:58:36;100601.81;;;-0.11
76381;BMP280;65202;52.520;10.528;2022-11-20T07:01:09;100604.91;;;-0.04
76381;BMP280;65202;52.520;10.528;2022-11-20T07:03:39;100600.28;;;-0.01
76381;BMP280;65202;52.520;10.528;2022-11-20T07:06:07;100598.03;;;-0.08
76381;BMP280;65202;52.520;10.528;2022-11-20T07:08:35;100600.38;;;-0.09
76381;BMP280;65202;52.520;10.528;2022-11-20T07:11:05;100595.06;;;-0.04
76381;BMP280;65202;52.520;10.528;2022-11-20T07:13:33;100598.53;;;-0.02
76381;BMP280;65202;52.520;10.528;2022-11-20T07:16:04;100594.84;;;-0.07
76381;BMP280;65202;52.520;10.528;2022-11-20T07:18:34;100591.41;;;0.11
76381;BMP280;65202;52.520;10.528;2022-11-20T07:21:03;100590.78;;;0.03
76381;BMP280;65202;52.520;10.528;2022-11-20T07:23:33;100602.47;;;0.06
76381;BMP280;65202;52.520;10.528;2022-11-20T07:26:09;100604.94;;;0.06
76381;BMP280;65202;52.520;10.528;2022-11-20T07:28:38;100590.69;;;0.12
76381;BMP280;65202;52.520;10.528;2022-11-20T07:31:05;100606.19;;;0.11
76381;BMP280;65202;52.520;10.528;2022-11-20T07:33:33;100586.75;;;0.54
76381;BMP280;65202;52.520;10.528;2022-11-20T07:36:01;100584.03;;;2.28
76381;BMP280;65202;52.520;10.528;2022-11-20T07:38:29;57949.22;;;-136.53
76381;BMP280;65202;52.520;10.528;2022-11-20T07:40:57;57949.22;;;-136.53
76381;BMP280;65202;52.520;10.528;2022-11-20T07:43:24;57949.22;;;-136.53
76381;BMP280;65202;52.520;10.528;2022-11-20T07:45:55;57949.22;;;-136.53
76381;BMP280;65202;52.520;10.528;2022-11-20T07:48:23;57949.22;;;-136.53
76381;BMP280;65202;52.520;10.528;2022-11-20T07:50:55;57949.22;;;-136.53
76381;BMP280;65202;52.520;10.528;2022-11-20T07:53:26;57949.22;;;-136.53
76381;BMP280;65202;52.520;10.528;2022-11-20T07:55:53;57949.22;;;-136.53
76381;BMP280;65202;52.520;10.528;2022-11-20T07:58:21;57949.22;;;-136.53
76381;BMP280;65202;52.520;10.528;2022-11-20T08:00:48;57949.22;;;-136.53
76381;BMP280;65202;52.520;10.528;2022-11-20T08:03:16;57949.22;;;-136.53
76381;BMP280;65202;52.520;10.528;2022-11-20T08:05:50;57949.22;;;-136.53
76381;BMP280;65202;52.520;10.528;2022-11-20T08:08:18;57949.22;;;-136.53
76381;BMP280;65202;52.520;10.528;2022-11-20T08:10:45;57949.22;;;-136.53
76381;BMP280;65202;52.520;10.528;2022-11-20T08:13:13;57949.22;;;-136.53
76381;BMP280;65202;52.520;10.528;2022-11-20T08:15:59;57949.22;;;-136.53
76381;BMP280;65202;52.520;10.528;2022-11-20T08:18:26;57949.22;;;-136.53
76381;BMP280;65202;52.520;10.528;2022-11-20T08:21:03;57949.22;;;-136.53
76381;BMP280;65202;52.520;10.528;2022-11-20T08:23:31;57949.22;;;-136.53
76381;BMP280;65202;52.520;10.528;2022-11-20T08:25:58;57949.22;;;-136.53
76381;BMP280;65202;52.520;10.528;2022-11-20T08:28:25;57949.22;;;-136.53
76381;BMP280;65202;52.520;10.528;2022-11-20T08:31:00;57949.22;;;-136.53
76381;BMP280;65202;52.520;10.528;2022-11-20T08:33:29;57949.22;;;-136.53
76381;BMP280;65202;52.520;10.528;2022-11-20T08:36:02;57949.22;;;-136.53
76381;BMP280;65202;52.520;10.528;2022-11-20T08:38:31;57949.22;;;-136.53
76381;BMP280;65202;52.520;10.528;2022-11-20T08:40:59;57949.22;;;-136.53
76381;BMP280;65202;52.520;10.528;2022-11-20T08:43:46;57949.22;;;-136.53
76381;BMP280;65202;52.520;10.528;2022-11-20T08:46:14;57949.22;;;-136.53
76381;BMP280;65202;52.520;10.528;2022-11-20T08:48:41;57949.22;;;-136.53
76381;BMP280;65202;52.520;10.528;2022-11-20T08:51:09;57949.22;;;-136.53
76381;BMP280;65202;52.520;10.528;2022-11-20T08:53:38;57949.22;;;-136.53
76381;BMP280;65202;52.520;10.528;2022-11-20T08:56:06;57949.22;;;-136.53
76381;BMP280;65202;52.520;10.528;2022-11-20T08:58:33;57949.22;;;-136.53
76381;BMP280;65202;52.520;10.528;2022-11-20T09:01:22;57949.22;;;-136.53
76381;BMP280;65202;52.520;10.528;2022-11-20T09:03:55;57949.22;;;-136.53
76381;BMP280;65202;52.520;10.528;2022-11-20T09:06:23;57949.22;;;-136.53
76381;BMP280;65202;52.520;10.528;2022-11-20T09:08:54;57949.22;;;-136.53
76381;BMP280;65202;52.520;10.528;2022-11-20T09:11:21;57949.22;;;-136.53
76381;BMP280;65202;52.520;10.528;2022-11-20T09:13:49;57949.22;;;-136.53
76381;BMP280;65202;52.520;10.528;2022-11-20T09:16:16;57949.22;;;-136.53
76381;BMP280;65202;52.520;10.528;2022-11-20T09:18:43;57949.22;;;-136.53
76381;BMP280;65202;52.520;10.528;2022-11-20T09:21:12;57949.22;;;-136.53
76381;BMP280;65202;52.520;10.528;2022-11-20T09:23:40;57949.22;;;-136.53
76381;BMP280;65202;52.520;10.528;2022-11-20T09:26:12;57949.22;;;-136.53
76381;BMP280;65202;52.520;10.528;2022-11-20T09:28:40;57949.22;;;-136.53
76381;BMP280;65202;52.520;10.528;2022-11-20T09:31:13;57949.22;;;-136.53
76381;BMP280;65202;52.520;10.528;2022-11-20T09:33:52;57949.22;;;-136.53
76381;BMP280;65202;52.520;10.528;2022-11-20T09:36:20;57949.22;;;-136.53
76381;BMP280;65202;52.520;10.528;2022-11-20T09:38:47;57949.22;;;-136.53
76381;BMP280;65202;52.520;10.528;2022-11-20T09:44:46;57949.22;;;-136.53
76381;BMP280;65202;52.520;10.528;2022-11-20T09:56:25;57949.22;;;-136.53
76381;BMP280;65202;52.520;10.528;2022-11-20T09:58:55;57949.22;;;-136.53
76381;BMP280;65202;52.520;10.528;2022-11-20T10:01:30;57949.22;;;-136.53
76381;BMP280;65202;52.520;10.528;2022-11-20T10:04:03;57949.22;;;-136.53
76381;BMP280;65202;52.520;10.528;2022-11-20T10:10:00;57949.22;;;-136.53
76381;BMP280;65202;52.520;10.528;2022-11-20T10:12:39;57949.22;;;-136.53
76381;BMP280;65202;52.520;10.528;2022-11-20T10:16:10;57949.22;;;-136.53
76381;BMP280;65202;52.520;10.528;2022-11-20T10:30:38;57949.22;;;-136.53
76381;BMP280;65202;52.520;10.528;2022-11-20T10:33:25;57949.22;;;-136.53
76381;BMP280;65202;52.520;10.528;2022-11-20T10:39:04;57949.22;;;-136.53
76381;BMP280;65202;52.520;10.528;2022-11-20T10:41:41;57949.22;;;-136.53
76381;BMP280;65202;52.520;10.528;2022-11-20T10:44:17;57949.22;;;-136.53
76381;BMP280;65202;52.520;10.528;2022-11-20T10:47:25;57949.22;;;-136.53
76381;BMP280;65202;52.520;10.528;2022-11-20T10:49:55;57949.22;;;-136.53
76381;BMP280;65202;52.520;10.528;2022-11-20T10:58:11;57949.22;;;-136.53
76381;BMP280;65202;52.520;10.528;2022-11-20T11:00:43;57949.22;;;-136.53
76381;BMP280;65202;52.520;10.528;2022-11-20T11:03:22;57949.22;;;-136.53
76381;BMP280;65202;52.520;10.528;2022-11-20T11:06:01;57949.22;;;-136.53
76381;BMP280;65202;52.520;10.528;2022-11-20T11:08:38;57949.22;;;-136.53
76381;BMP280;65202;52.520;10.528;2022-11-20T11:11:23;57949.22;;;-136.53
76381;BMP280;65202;52.520;10.528;2022-11-20T11:14:14;57949.22;;;-136.53
76381;BMP280;65202;52.520;10.528;2022-11-20T11:19:18;57949.22;;;-136.53
76381;BMP280;65202;52.520;10.528;2022-11-20T11:21:51;57949.22;;;-136.53
76381;BMP280;65202;52.520;10.528;2022-11-20T11:24:26;57949.22;;;-136.53
76381;BMP280;65202;52.520;10.528;2022-11-20T11:27:12;57949.22;;;-136.53
76381;BMP280;65202;52.520;10.528;2022-11-20T11:29:48;57949.22;;;-136.53
76381;BMP280;65202;52.520;10.528;2022-11-20T11:32:18;57949.22;;;-136.53
76381;BMP280;65202;52.520;10.528;2022-11-20T11:35:01;57949.22;;;-136.53
76381;BMP280;65202;52.520;10.528;2022-11-20T11:37:35;57949.22;;;-136.53
76381;BMP280;65202;52.520;10.528;2022-11-20T11:40:05;57949.22;;;-136.53
76381;BMP280;65202;52.520;10.528;2022-11-20T11:42:56;57949.22;;;-136.53
76381;BMP280;65202;52.520;10.528;2022-11-20T11:45:26;57949.22;;;-136.53
76381;BMP280;65202;52.520;10.528;2022-11-20T11:47:56;57949.22;;;-136.53
76381;BMP280;65202;52.520;10.528;2022-11-20T11:50:28;57949.22;;;-136.53
76381;BMP280;65202;52.520;10.528;2022-11-20T11:53:17;57949.22;;;-136.53
76381;BMP280;65202;52.520;10.528;2022-11-20T11:55:56;57949.22;;;-136.53
76381;BMP280;65202;52.520;10.528;2022-11-20T11:58:45;57949.22;;;-136.53
76381;BMP280;65202;52.520;10.528;2022-11-20T12:04:34;57949.22;;;-136.53
76381;BMP280;65202;52.520;10.528;2022-11-20T12:07:38;57949.22;;;-136.53
76381;BMP280;65202;52.520;10.528;2022-11-20T12:10:54;57949.22;;;-136.53
76381;BMP280;65202;52.520;10.528;2022-11-20T12:13:41;57949.22;;;-136.53
76381;BMP280;65202;52.520;10.528;2022-11-20T12:16:15;57949.22;;;-136.53
76381;BMP280;65202;52.520;10.528;2022-11-20T12:18:51;57949.22;;;-136.53
76381;BMP280;65202;52.520;10.528;2022-11-20T12:30:17;57949.22;;;-136.53
76381;BMP280;65202;52.520;10.528;2022-11-20T12:35:32;57949.22;;;-136.53
76381;BMP280;65202;52.520;10.528;2022-11-20T12:43:29;57949.22;;;-136.53
76381;BMP280;65202;52.520;10.528;2022-11-20T12:46:46;57949.22;;;-136.53
76381;BMP280;65202;52.520;10.528;2022-11-20T12:49:44;57949.22;;;-136.53
76381;BMP280;65202;52.520;10.528;2022-11-20T12:52:38;57949.22;;;-136.53
76381;BMP280;65202;52.520;10.528;2022-11-20T13:07:16;57949.22;;;-136.53
76381;BMP280;65202;52.520;10.528;2022-11-20T13:09:46;57949.22;;;-136.53
76381;BMP280;65202;52.520;10.528;2022-11-20T13:12:23;57949.22;;;-136.53
76381;BMP280;65202;52.520;10.528;2022-11-20T13:15:27;57949.22;;;-136.53
76381;BMP280;65202;52.520;10.528;2022-11-20T13:18:04;57949.22;;;-136.53
76381;BMP280;65202;52.520;10.528;2022-11-20T13:20:36;57949.22;;;-136.53
76381;BMP280;65202;52.520;10.528;2022-11-20T13:23:09;57949.22;;;-136.53
76381;BMP280;65202;52.520;10.528;2022-11-20T13:25:38;57949.22;;;-136.53
76381;BMP280;65202;52.520;10.528;2022-11-20T13:30:48;57949.22;;;-136.53
76381;BMP280;65202;52.520;10.528;2022-11-20T13:33:31;57949.22;;;-136.53
76381;BMP280;65202;52.520;10.528;2022-11-20T13:36:05;57949.22;;;-136.53
76381;BMP280;65202;52.520;10.528;2022-11-20T13:38:44;57949.22;;;-136.53
76381;BMP280;65202;52.520;10.528;2022-11-20T13:41:33;57949.22;;;-136.53
76381;BMP280;65202;52.520;10.528;2022-11-20T13:44:22;57949.22;;;-136.53
76381;BMP280;65202;52.520;10.528;2022-11-20T13:46:54;57949.22;;;-136.53
76381;BMP280;65202;52.520;10.528;2022-11-20T13:49:34;57949.22;;;-136.53
76381;BMP280;65202;52.520;10.528;2022-11-20T13:58:54;57949.22;;;-136.53
76381;BMP280;65202;52.520;10.528;2022-11-20T14:01:43;57949.22;;;-136.53
76381;BMP280;65202;52.520;10.528;2022-11-20T14:04:15;57949.22;;;-136.53
76381;BMP280;65202;52.520;10.528;2022-11-20T14:06:48;57949.22;;;-136.53
76381;BMP280;65202;52.520;10.528;2022-11-20T14:09:32;57949.22;;;-136.53
76381;BMP280;65202;52.520;10.528;2022-11-20T14:12:03;57949.22;;;-136.53
76381;BMP280;65202;52.520;10.528;2022-11-20T14:14:32;57949.22;;;-136.53
76381;BMP280;65202;52.520;10.528;2022-11-20T14:19:47;57949.22;;;-136.53
76381;BMP280;65202;52.520;10.528;2022-11-20T14:22:23;57949.22;;;-136.53
76381;BMP280;65202;52.520;10.528;2022-11-20T14:25:18;57949.22;;;-136.53
76381;BMP280;65202;52.520;10.528;2022-11-20T14:27:57;57949.22;;;-136.53
76381;BMP280;65202;52.520;10.528;2022-11-20T14:30:28;57949.22;;;-136.53
76381;BMP280;65202;52.520;10.528;2022-11-20T14:33:04;57949.22;;;-136.53
76381;BMP280;65202;52.520;10.528;2022-11-20T14:35:37;57949.22;;;-136.53
76381;BMP280;65202;52.520;10.528;2022-11-20T14:38:16;57949.22;;;-136.53
76381;BMP280;65202;52.520;10.528;2022-11-20T14:40:46;57949.22;;;-136.53
76381;BMP280;65202;52.520;10.528;2022-11-20T14:43:28;57949.22;;;-136.53
76381;BMP280;65202;52.520;10.528;2022-11-20T14:45:58;57949.22;;;-136.53
76381;BMP280;65202;52.520;10.528;2022-11-20T14:48:50;57949.22;;;-136.53
76381;BMP280;65202;52.520;10.528;2022-11-20T14:54:18;57949.22;;;-136.53
76381;BMP280;65202;52.520;10.528;2022-11-20T14:56:59;57949.22;;;-136.53
76381;BMP280;65202;52.520;10.528;2022-11-20T14:59:32;57949.22;;;-136.53
76381;BMP280;65202;52.520;10.528;2022-11-20T15:02:04;57949.22;;;-136.53
76381;BMP280;65202;52.520;10.528;2022-11-20T15:04:49;57949.22;;;-136.53
76381;BMP280;65202;52.520;10.528;2022-11-20T15:07:29;57949.22;;;-136.53
76381;BMP280;65202;52.520;10.528;2022-11-20T15:10:04;57949.22;;;-136.53
76381;BMP280;65202;52.520;10.528;2022-11-20T15:12:34;57949.22;;;-136.53
76381;BMP280;65202;52.520;10.528;2022-11-20T15:15:06;57949.22;;;-136.53
76381;BMP280;65202;52.520;10.528;2022-11-20T15:17:40;57949.22;;;-136.53
76381;BMP280;65202;52.520;10.528;2022-11-20T15:20:13;57949.22;;;-136.53
76381;BMP280;65202;52.520;10.528;2022-11-20T15:22:43;57949.22;;;-136.53
76381;BMP280;65202;52.520;10.528;2022-11-20T15:25:14;57949.22;;;-136.53
76381;BMP280;65202;52.520;10.528;2022-11-20T15:27:43;57949.22;;;-136.53
76381;BMP280;65202;52.520;10.528;2022-11-20T15:30:19;57949.22;;;-136.53
76381;BMP280;65202;52.520;10.528;2022-11-20T15:32:47;57949.22;;;-136.53
76381;BMP280;65202;52.520;10.528;2022-11-20T15:35:15;57949.22;;;-136.53
76381;BMP280;65202;52.520;10.528;2022-11-20T15:37:43;57949.22;;;-136.53
76381;BMP280;65202;52.520;10.528;2022-11-20T15:40:11;57949.22;;;-136.53
76381;BMP280;65202;52.520;10.528;2022-11-20T15:42:38;57949.22;;;-136.53
76381;BMP280;65202;52.520;10.528;2022-11-20T15:45:28;57949.22;;;-136.53
76381;BMP280;65202;52.520;10.528;2022-11-20T15:47:59;57949.22;;;-136.53
76381;BMP280;65202;52.520;10.528;2022-11-20T15:50:35;57949.22;;;-136.53